createdAt,value
2023-07-03T00:00:36.311Z,5.70
2023-07-03T00:03:06.894Z,5.32
2023-07-03T00:05:40.364Z,6.35
2023-07-03T00:08:14.455Z,5.13
2023-07-03T00:10:44.619Z,5.75
2023-07-03T00:13:15.048Z,6.13
2023-07-03T00:15:45.574Z,4.72
2023-07-03T00:18:15.731Z,6.45
2023-07-03T00:20:45.882Z,5.57
2023-07-03T00:23:18.737Z,6.20
2023-07-03T00:25:49.184Z,5.85
2023-07-03T00:28:19.582Z,6.13
2023-07-03T00:30:50.011Z,6.75
2023-07-03T00:33:20.263Z,5.82
2023-07-03T00:35:50.600Z,5.80
2023-07-03T00:38:25.529Z,6.40
2023-07-03T00:40:55.642Z,6.43
2023-07-03T00:43:25.966Z,6.53
2023-07-03T00:45:56.293Z,5.80
2023-07-03T00:48:26.528Z,6.25
2023-07-03T00:50:56.605Z,5.90
2023-07-03T00:53:29.798Z,5.93
2023-07-03T00:56:00.151Z,5.68
2023-07-03T00:58:31.262Z,6.05
2023-07-03T01:01:07.498Z,7.05
2023-07-03T01:03:44.906Z,6.53
2023-07-03T01:06:20.935Z,6.43
2023-07-03T01:09:00.749Z,6.75
2023-07-03T01:11:31.648Z,6.53
2023-07-03T01:14:05.459Z,6.30
2023-07-03T01:16:38.428Z,7.00
2023-07-03T01:19:15.424Z,6.22
2023-07-03T01:21:53.348Z,6.65
2023-07-03T01:24:34.962Z,6.75
2023-07-03T01:27:07.782Z,6.13
2023-07-03T01:29:38.865Z,7.05
2023-07-03T01:32:11.531Z,7.00
2023-07-03T01:34:47.011Z,7.67
2023-07-03T01:37:18.645Z,7.13
2023-07-03T01:39:53.128Z,7.15
2023-07-03T01:42:25.336Z,7.40
2023-07-03T01:44:55.530Z,8.20
2023-07-03T01:47:25.759Z,7.88
2023-07-03T01:49:56.037Z,7.78
2023-07-03T01:52:31.911Z,8.32
2023-07-03T01:55:09.798Z,8.73
2023-07-03T01:57:48.116Z,9.05
2023-07-03T02:00:32.836Z,8.65
2023-07-03T02:03:07.501Z,8.85
2023-07-03T02:05:43.209Z,8.95
2023-07-03T02:08:14.637Z,8.90
2023-07-03T02:10:47.512Z,8.43
2023-07-03T02:13:18.572Z,9.82
2023-07-03T02:15:49.362Z,9.65
2023-07-03T02:18:22.275Z,8.93
2023-07-03T02:20:53.455Z,9.13
2023-07-03T02:23:23.524Z,9.48
2023-07-03T02:25:56.349Z,10.52
2023-07-03T02:28:29.821Z,9.88
2023-07-03T02:31:00.975Z,9.10
2023-07-03T02:33:31.196Z,8.90
2023-07-03T02:36:01.272Z,9.23
2023-07-03T02:38:31.344Z,8.75
2023-07-03T02:41:06.099Z,10.18
2023-07-03T02:43:36.201Z,10.05
2023-07-03T02:46:10.694Z,9.65
2023-07-03T02:48:41.057Z,10.57
2023-07-03T02:51:12.088Z,9.65
2023-07-03T02:53:42.198Z,9.15
2023-07-03T02:56:18.454Z,9.50
2023-07-03T02:58:51.269Z,10.05
2023-07-03T03:01:27.744Z,8.65
2023-07-03T03:03:59.935Z,8.73
2023-07-03T03:06:30.643Z,8.07
2023-07-03T03:09:00.719Z,7.65
2023-07-03T03:11:36.524Z,8.30
2023-07-03T03:14:07.616Z,8.18
2023-07-03T03:16:38.527Z,7.55
2023-07-03T03:19:08.702Z,8.43
2023-07-03T03:21:39.555Z,9.20
2023-07-03T03:24:10.768Z,8.25
2023-07-03T03:26:43.480Z,8.30
2023-07-03T03:29:13.773Z,8.93
2023-07-03T03:31:44.770Z,9.02
2023-07-03T03:34:15.898Z,10.07
2023-07-03T03:36:46.760Z,9.57
2023-07-03T03:39:16.966Z,9.02
2023-07-03T03:41:49.776Z,8.93
2023-07-03T03:44:19.888Z,9.10
2023-07-03T03:46:51.032Z,10.68
2023-07-03T03:49:21.138Z,10.23
2023-07-03T03:51:52.341Z,10.35
2023-07-03T03:54:23.110Z,11.10
2023-07-03T03:56:56.146Z,10.65
2023-07-03T03:59:26.472Z,11.68
2023-07-03T04:01:56.785Z,12.45
2023-07-03T04:04:26.987Z,12.98
2023-07-03T04:06:57.125Z,13.93
2023-07-03T04:09:27.305Z,12.43
2023-07-03T04:12:00.104Z,12.77
2023-07-03T04:14:30.276Z,12.77
2023-07-03T04:17:01.916Z,12.35
2023-07-03T04:19:33.022Z,13.63
2023-07-03T04:22:03.131Z,12.77
2023-07-03T04:24:33.286Z,16.85
2023-07-03T04:27:06.537Z,19.52
2023-07-03T04:29:36.768Z,15.77
2023-07-03T04:32:07.433Z,9.15
2023-07-03T04:34:37.712Z,9.88
2023-07-03T04:37:09.863Z,10.02
2023-07-03T04:39:40.146Z,10.07
2023-07-03T04:42:14.965Z,10.73
2023-07-03T04:44:45.286Z,11.48
2023-07-03T04:47:17.213Z,11.45
2023-07-03T04:49:47.554Z,11.30
2023-07-03T04:52:19.679Z,10.05
2023-07-03T04:54:49.810Z,10.52
2023-07-03T04:57:22.485Z,11.43
2023-07-03T04:59:52.935Z,11.20
2023-07-03T05:02:23.137Z,9.57
2023-07-03T05:04:53.296Z,9.00
2023-07-03T05:07:23.878Z,9.82
2023-07-03T05:09:55.019Z,9.43
2023-07-03T05:12:27.770Z,9.82
2023-07-03T05:14:58.385Z,9.60
2023-07-03T05:17:28.763Z,9.18
2023-07-03T05:19:59.574Z,9.18
2023-07-03T05:22:29.716Z,8.57
2023-07-03T05:25:01.497Z,8.35
2023-07-03T05:27:34.426Z,10.43
2023-07-03T05:30:04.791Z,9.13
2023-07-03T05:32:35.311Z,8.73
2023-07-03T05:35:06.793Z,8.70
2023-07-03T05:37:37.995Z,8.82
2023-07-03T05:40:10.615Z,8.93
2023-07-03T05:42:43.381Z,8.73
2023-07-03T05:45:14.854Z,8.80
2023-07-03T05:47:45.089Z,9.95
2023-07-03T05:50:15.327Z,8.48
2023-07-03T05:52:45.757Z,8.98
2023-07-03T05:55:15.949Z,9.07
2023-07-03T05:57:48.701Z,8.65
2023-07-03T06:00:19.916Z,7.55
2023-07-03T06:02:53.346Z,8.70
2023-07-03T06:05:24.118Z,9.00
2023-07-03T06:07:54.323Z,8.82
2023-07-03T06:10:25.048Z,7.63
2023-07-03T06:12:57.778Z,8.95
2023-07-03T06:15:28.796Z,7.57
2023-07-03T06:17:59.850Z,7.43
2023-07-03T06:20:30.128Z,6.90
2023-07-03T06:23:00.428Z,8.38
2023-07-03T06:25:30.571Z,7.43
2023-07-03T06:28:03.674Z,8.95
2023-07-03T06:30:35.869Z,9.10
2023-07-03T06:33:06.215Z,9.23
2023-07-03T06:35:36.403Z,10.07
2023-07-03T06:38:06.564Z,8.20
2023-07-03T06:40:36.780Z,8.23
2023-07-03T06:43:09.571Z,8.02
2023-07-03T06:45:41.103Z,8.45
2023-07-03T06:48:11.863Z,7.97
2023-07-03T06:50:42.030Z,7.53
2023-07-03T06:53:12.243Z,6.68
2023-07-03T06:55:42.368Z,7.82
2023-07-03T06:58:15.108Z,7.88
2023-07-03T07:00:45.846Z,7.10
2023-07-03T07:03:16.044Z,6.82
2023-07-03T07:05:47.137Z,6.68
2023-07-03T07:08:18.171Z,6.57
2023-07-03T07:10:48.772Z,5.28
2023-07-03T07:13:21.461Z,5.20
2023-07-03T07:15:52.288Z,4.50
2023-07-03T07:18:22.827Z,5.00
2023-07-03T07:20:55.696Z,5.65
2023-07-03T07:23:25.932Z,4.45
2023-07-03T07:25:58.698Z,4.88
2023-07-03T07:28:31.998Z,4.55
2023-07-03T07:33:32.417Z,4.53
2023-07-03T07:36:02.600Z,4.68
2023-07-03T07:38:32.674Z,4.18
2023-07-03T07:41:06.816Z,4.78
2023-07-03T07:43:39.575Z,5.03
2023-07-03T07:46:09.847Z,4.53
2023-07-03T07:48:40.633Z,4.40
2023-07-03T07:51:12.225Z,5.38
2023-07-03T07:53:42.589Z,8.15
2023-07-03T07:56:14.941Z,6.47
2023-07-03T07:58:47.745Z,7.45
2023-07-03T08:01:18.630Z,7.07
2023-07-03T08:03:49.253Z,9.63
2023-07-03T08:06:19.850Z,8.02
2023-07-03T08:08:50.018Z,7.45
2023-07-03T08:11:20.296Z,8.45
2023-07-03T08:13:53.193Z,8.27
2023-07-03T08:16:23.424Z,9.10
2023-07-03T08:18:53.634Z,9.65
2023-07-03T08:21:24.136Z,7.82
2023-07-03T08:23:54.315Z,8.13
2023-07-03T08:26:26.850Z,7.97
2023-07-03T08:28:59.592Z,9.38
2023-07-03T08:31:29.734Z,9.80
2023-07-03T08:33:59.887Z,9.60
2023-07-03T08:41:34.248Z,10.43
2023-07-03T08:44:07.327Z,12.00
2023-07-03T08:46:38.322Z,10.35
2023-07-03T08:49:10.615Z,10.40
2023-07-03T08:51:42.781Z,9.93
2023-07-03T08:54:19.025Z,9.73
2023-07-03T08:56:50.815Z,11.10
2023-07-03T08:59:23.567Z,10.52
2023-07-03T09:02:00.568Z,10.43
2023-07-03T09:04:47.451Z,10.05
2023-07-03T09:07:22.777Z,11.75
2023-07-03T09:10:01.325Z,12.32
2023-07-03T09:12:37.879Z,12.55
2023-07-03T09:15:19.016Z,11.10
2023-07-03T09:17:50.338Z,11.50
2023-07-03T09:20:20.712Z,13.27
2023-07-03T09:22:55.122Z,16.90
2023-07-03T09:25:34.755Z,12.27
2023-07-03T09:28:07.072Z,11.65
2023-07-03T09:30:40.410Z,23.92
2023-07-03T09:33:11.032Z,11.90
2023-07-03T09:35:43.980Z,10.90
2023-07-03T09:40:47.074Z,11.80
2023-07-03T09:43:19.435Z,11.65
2023-07-03T09:45:53.551Z,11.77
2023-07-03T09:48:28.529Z,12.43
2023-07-03T09:51:07.347Z,17.13
2023-07-03T09:53:43.316Z,12.57
2023-07-03T09:56:18.559Z,13.23
2023-07-03T09:58:50.751Z,13.52
2023-07-03T10:06:43.931Z,12.85
2023-07-03T10:12:04.492Z,12.90
2023-07-03T10:14:40.824Z,12.73
2023-07-03T10:17:17.450Z,12.65
2023-07-03T10:20:01.223Z,12.10
2023-07-03T10:22:31.610Z,13.73
2023-07-03T10:25:07.183Z,19.30
2023-07-03T10:27:39.848Z,13.52
2023-07-03T10:30:16.672Z,13.43
2023-07-03T10:32:53.163Z,13.60
2023-07-03T10:35:29.045Z,13.73
2023-07-03T10:38:06.611Z,13.43
2023-07-03T10:40:42.761Z,14.55
2023-07-03T10:43:16.769Z,13.27
2023-07-03T10:45:48.860Z,12.77
2023-07-03T10:48:24.879Z,12.50
2023-07-03T10:51:02.713Z,23.13
2023-07-03T10:53:41.633Z,12.60
2023-07-03T10:56:20.487Z,12.98
2023-07-03T10:58:59.108Z,13.07
2023-07-03T11:01:35.612Z,12.02
2023-07-03T11:04:24.869Z,12.38
2023-07-03T11:07:07.395Z,12.13
2023-07-03T11:09:47.135Z,11.73
2023-07-03T11:12:25.722Z,11.68
2023-07-03T11:15:06.793Z,12.05
2023-07-03T11:20:28.448Z,11.93
2023-07-03T11:23:05.397Z,12.88
2023-07-03T11:28:38.432Z,11.40
2023-07-03T11:31:10.983Z,11.82
2023-07-03T11:36:51.551Z,11.80
2023-07-03T11:44:51.696Z,10.95
2023-07-03T11:47:27.076Z,10.65
2023-07-03T11:50:01.953Z,10.80
2023-07-03T11:52:39.584Z,10.45
2023-07-03T11:55:15.509Z,11.55
2023-07-03T11:58:04.490Z,11.63
2023-07-03T12:00:44.281Z,11.88
2023-07-03T12:03:15.832Z,11.68
2023-07-03T12:05:58.353Z,11.98
2023-07-03T12:08:49.502Z,10.82
2023-07-03T12:11:21.746Z,10.10
2023-07-03T12:13:56.984Z,11.27
2023-07-03T12:16:33.969Z,11.07
2023-07-03T12:19:12.503Z,10.98
2023-07-03T12:21:49.237Z,11.68
2023-07-03T12:24:31.285Z,9.95
2023-07-03T12:27:04.848Z,11.23
2023-07-03T12:29:36.891Z,10.45
2023-07-03T12:32:09.964Z,11.17
2023-07-03T12:34:42.017Z,9.88
2023-07-03T12:37:16.711Z,9.97
2023-07-03T12:39:50.458Z,11.43
2023-07-03T12:42:25.307Z,11.00
2023-07-03T12:44:57.150Z,10.95
2023-07-03T12:47:27.292Z,10.68
2023-07-03T12:50:01.297Z,11.27
2023-07-03T12:52:33.417Z,10.82
2023-07-03T12:55:14.604Z,11.53
2023-07-03T12:57:46.561Z,11.48
2023-07-03T13:00:28.589Z,11.43
2023-07-03T13:03:01.616Z,11.40
2023-07-03T13:05:35.792Z,13.02
2023-07-03T13:08:08.295Z,12.15
2023-07-03T13:10:41.262Z,11.77
2023-07-03T13:13:13.739Z,10.43
2023-07-03T13:15:51.298Z,11.15
2023-07-03T13:18:24.308Z,11.77
2023-07-03T13:21:00.967Z,11.30
2023-07-03T13:23:38.205Z,12.38
2023-07-03T13:26:32.547Z,10.98
2023-07-03T13:29:07.902Z,11.52
2023-07-03T13:31:51.295Z,11.13
2023-07-03T13:34:30.440Z,10.65
2023-07-03T13:37:10.617Z,11.27
2023-07-03T13:40:00.022Z,11.82
2023-07-03T13:42:38.503Z,11.55
2023-07-03T13:45:18.452Z,12.63
2023-07-03T13:47:49.802Z,12.07
2023-07-03T13:50:20.926Z,12.10
2023-07-03T13:52:56.543Z,11.50
2023-07-03T13:55:29.117Z,12.07
2023-07-03T13:58:04.721Z,11.30
2023-07-03T14:00:35.493Z,10.15
2023-07-03T14:03:05.838Z,12.27
2023-07-03T14:05:36.648Z,10.45
2023-07-03T14:08:07.088Z,10.65
2023-07-03T14:10:40.828Z,13.30
2023-07-03T14:13:16.254Z,10.73
2023-07-03T14:15:47.749Z,11.57
2023-07-03T14:18:20.893Z,12.30
2023-07-03T14:20:55.623Z,11.63
2023-07-03T14:23:28.316Z,11.32
2023-07-03T14:26:00.348Z,11.68
2023-07-03T14:28:33.197Z,11.77
2023-07-03T14:31:03.594Z,11.02
2023-07-03T14:33:34.776Z,11.02
2023-07-03T14:36:05.081Z,11.23
2023-07-03T14:38:35.647Z,12.73
2023-07-03T14:41:07.716Z,11.68
2023-07-03T14:43:41.205Z,11.20
2023-07-03T14:46:12.672Z,11.48
2023-07-03T14:48:43.569Z,11.43
2023-07-03T14:51:15.812Z,11.20
2023-07-03T14:53:46.587Z,12.00
2023-07-03T14:56:18.064Z,12.70
2023-07-03T14:58:51.228Z,11.00
2023-07-03T15:01:25.049Z,10.38
2023-07-03T15:03:58.481Z,10.95
2023-07-03T15:06:29.990Z,10.90
2023-07-03T15:09:00.045Z,10.38
2023-07-03T15:11:31.449Z,12.13
2023-07-03T15:14:05.100Z,11.05
2023-07-03T15:16:37.513Z,13.45
2023-07-03T15:19:10.107Z,12.95
2023-07-03T15:21:44.374Z,12.33
2023-07-03T15:24:14.620Z,11.82
2023-07-03T15:26:46.267Z,11.35
2023-07-03T15:29:19.306Z,11.57
2023-07-03T15:34:26.545Z,11.35
2023-07-03T15:37:00.380Z,12.55
2023-07-03T15:39:40.681Z,12.27
2023-07-03T15:42:10.977Z,12.13
2023-07-03T15:44:43.798Z,11.77
2023-07-03T15:47:14.519Z,11.90
2023-07-03T15:49:44.636Z,11.95
2023-07-03T15:52:14.732Z,12.98
2023-07-03T15:54:44.874Z,12.98
2023-07-03T15:57:14.968Z,13.02
2023-07-03T15:59:47.874Z,12.10
2023-07-03T16:04:48.032Z,12.38
2023-07-03T16:07:18.384Z,12.65
2023-07-03T16:09:48.519Z,12.30
2023-07-03T16:12:18.669Z,12.48
2023-07-03T16:14:52.781Z,13.18
2023-07-03T16:17:22.995Z,14.10
2023-07-03T16:20:07.854Z,11.95
2023-07-03T16:22:40.800Z,13.52
2023-07-03T16:25:11.987Z,12.10
2023-07-03T16:27:42.099Z,12.57
2023-07-03T16:30:15.442Z,13.00
2023-07-03T16:32:47.243Z,12.55
2023-07-03T16:35:17.656Z,12.27
2023-07-03T16:37:48.106Z,12.95
2023-07-03T16:40:18.742Z,11.95
2023-07-03T16:42:50.291Z,13.25
2023-07-03T16:45:26.155Z,13.43
2023-07-03T16:47:57.477Z,14.57
2023-07-03T16:50:27.680Z,12.52
2023-07-03T16:52:57.782Z,12.70
2023-07-03T16:55:28.100Z,13.15
2023-07-03T16:57:58.209Z,13.07
2023-07-03T17:00:31.862Z,13.10
2023-07-03T17:03:02.236Z,12.68
2023-07-03T17:05:32.754Z,13.05
2023-07-03T17:08:03.005Z,12.98
2023-07-03T17:10:33.786Z,14.88
2023-07-03T17:13:03.968Z,13.70
2023-07-03T17:15:37.007Z,15.63
2023-07-03T17:20:37.183Z,12.98
2023-07-03T17:23:07.453Z,13.48
2023-07-03T17:25:37.717Z,14.77
2023-07-03T17:28:08.456Z,15.50
2023-07-03T17:30:41.984Z,15.55
2023-07-03T17:33:12.521Z,15.30
2023-07-03T17:35:44.416Z,13.15
2023-07-03T17:38:14.935Z,15.15
2023-07-03T17:40:48.037Z,13.80
2023-07-03T17:45:56.355Z,13.20
2023-07-03T17:48:27.479Z,13.65
2023-07-03T17:50:57.562Z,14.70
2023-07-03T17:53:27.837Z,14.35
2023-07-03T17:55:57.981Z,15.55
2023-07-03T17:58:28.203Z,14.65
2023-07-03T18:01:02.764Z,15.05
2023-07-03T18:03:34.186Z,16.88
2023-07-03T18:06:04.687Z,22.70
2023-07-03T18:08:35.095Z,18.13
2023-07-03T18:11:05.354Z,18.13
2023-07-03T18:13:35.841Z,16.42
2023-07-03T18:16:08.637Z,17.70
2023-07-03T18:18:38.914Z,19.73
2023-07-03T18:21:09.046Z,17.60
2023-07-03T18:23:39.206Z,16.88
2023-07-03T18:26:09.546Z,17.48
2023-07-03T18:28:39.651Z,16.00
2023-07-03T18:31:12.543Z,16.75
2023-07-03T18:33:42.723Z,16.52
2023-07-03T18:36:12.920Z,16.13
2023-07-03T18:38:43.150Z,16.67
2023-07-03T18:41:25.422Z,15.75
2023-07-03T18:44:00.952Z,16.35
2023-07-03T18:46:41.320Z,17.50
2023-07-03T18:49:18.224Z,16.48
2023-07-03T18:51:55.818Z,17.35
2023-07-03T18:54:29.123Z,16.25
2023-07-03T18:57:06.625Z,15.43
2023-07-03T18:59:45.901Z,16.45
2023-07-03T19:02:29.687Z,16.92
2023-07-03T19:04:59.910Z,17.40
2023-07-03T19:07:35.080Z,19.50
2023-07-03T19:10:18.458Z,16.60
2023-07-03T19:13:02.974Z,17.95
2023-07-03T19:15:35.029Z,16.80
2023-07-03T19:18:07.905Z,17.83
2023-07-03T19:20:38.732Z,17.65
2023-07-03T19:23:08.869Z,17.42
2023-07-03T19:25:38.998Z,17.65
2023-07-03T19:28:09.317Z,17.63
2023-07-03T19:30:39.887Z,16.88
2023-07-03T19:33:16.111Z,17.63
2023-07-03T19:35:46.238Z,16.45
2023-07-03T19:38:17.282Z,15.95
2023-07-03T19:40:47.713Z,15.65
2023-07-03T19:43:18.472Z,16.45
2023-07-03T19:45:49.266Z,16.70
2023-07-03T19:48:22.192Z,16.38
2023-07-03T19:50:52.438Z,16.30
2023-07-03T19:53:22.560Z,16.25
2023-07-03T19:55:52.908Z,16.52
2023-07-03T19:58:25.898Z,16.50
2023-07-03T20:00:57.076Z,16.88
2023-07-03T20:03:30.156Z,15.70
2023-07-03T20:06:00.626Z,15.35
2023-07-03T20:08:32.584Z,14.48
2023-07-03T20:11:03.662Z,15.18
2023-07-03T20:13:33.948Z,15.20
2023-07-03T20:16:05.709Z,16.20
2023-07-03T20:18:39.872Z,15.82
2023-07-03T20:21:11.256Z,15.88
2023-07-03T20:23:43.691Z,15.00
2023-07-03T20:26:13.941Z,14.73
2023-07-03T20:28:44.199Z,16.33
2023-07-03T20:31:17.024Z,15.00
2023-07-03T20:33:50.128Z,15.88
2023-07-03T20:36:21.252Z,15.55
2023-07-03T20:38:51.480Z,15.15
2023-07-03T20:41:21.625Z,15.00
2023-07-03T20:43:51.764Z,15.45
2023-07-03T20:46:22.763Z,15.48
2023-07-03T20:48:58.216Z,15.43
2023-07-03T20:51:33.770Z,15.82
2023-07-03T20:54:05.980Z,15.63
2023-07-03T20:56:40.493Z,15.38
2023-07-03T20:59:12.380Z,15.85
2023-07-03T21:01:44.251Z,16.60
2023-07-03T21:04:17.509Z,15.52
2023-07-03T21:06:50.512Z,14.95
2023-07-03T21:09:21.497Z,14.98
2023-07-03T21:11:51.670Z,15.65
2023-07-03T21:14:22.273Z,14.32
2023-07-03T21:16:52.511Z,16.05
2023-07-03T21:19:25.316Z,16.38
2023-07-03T21:21:55.441Z,14.95
2023-07-03T21:24:25.634Z,14.77
2023-07-03T21:26:55.784Z,15.98
2023-07-03T21:29:25.926Z,14.93
2023-07-03T21:31:56.093Z,14.88
2023-07-03T21:34:28.932Z,14.95
2023-07-03T21:36:59.139Z,14.57
2023-07-03T21:39:29.307Z,15.25
2023-07-03T21:41:59.390Z,14.30
2023-07-03T21:44:29.562Z,15.18
2023-07-03T21:47:01.826Z,14.90
2023-07-03T21:49:35.175Z,15.25
2023-07-03T21:52:05.680Z,15.90
2023-07-03T21:54:35.830Z,14.80
2023-07-03T21:57:06.069Z,15.60
2023-07-03T21:59:36.323Z,15.55
2023-07-03T22:02:06.838Z,15.10
2023-07-03T22:04:39.608Z,14.60
2023-07-03T22:07:10.015Z,14.80
2023-07-03T22:09:40.301Z,14.77
2023-07-03T22:12:12.265Z,15.82
2023-07-03T22:14:42.420Z,15.48
2023-07-03T22:17:12.542Z,15.05
2023-07-03T22:19:45.973Z,14.73
2023-07-03T22:22:16.076Z,15.65
2023-07-03T22:24:46.415Z,14.70
2023-07-03T22:27:16.596Z,15.27
2023-07-03T22:29:46.879Z,14.95
2023-07-03T22:32:17.013Z,15.77
2023-07-03T22:34:50.221Z,15.60
2023-07-03T22:37:20.414Z,16.27
2023-07-03T22:39:50.520Z,15.75
2023-07-03T22:42:20.821Z,16.00
2023-07-03T22:44:51.036Z,16.40
2023-07-03T22:47:21.267Z,18.40
2023-07-03T22:49:54.116Z,17.02
2023-07-03T22:52:25.707Z,16.45
2023-07-03T22:54:55.905Z,16.63
2023-07-03T22:57:26.225Z,18.52
2023-07-03T22:59:57.220Z,17.35
2023-07-03T23:02:29.647Z,16.58
2023-07-03T23:05:02.528Z,16.97
2023-07-03T23:07:32.805Z,16.65
2023-07-03T23:10:03.084Z,17.23
2023-07-03T23:12:33.261Z,15.70
2023-07-03T23:15:03.667Z,16.23
2023-07-03T23:17:35.111Z,17.08
2023-07-03T23:20:12.754Z,16.58
2023-07-03T23:22:43.103Z,16.63
2023-07-03T23:25:13.489Z,16.25
2023-07-03T23:27:47.458Z,16.42
2023-07-03T23:30:18.574Z,16.98
2023-07-03T23:32:48.944Z,15.38
2023-07-03T23:35:22.850Z,15.50
2023-07-03T23:37:53.243Z,14.88
2023-07-03T23:40:23.292Z,14.70
2023-07-03T23:42:53.566Z,14.27
2023-07-03T23:45:23.996Z,13.85
2023-07-03T23:47:54.364Z,14.27
2023-07-03T23:50:27.114Z,13.85
2023-07-03T23:52:57.840Z,14.82
2023-07-03T23:55:28.133Z,14.48
2023-07-03T23:57:58.258Z,15.20
